createdAt,value
2018-09-21T00:01:09.035Z,12.60
2018-09-21T00:03:37.525Z,14.47
2018-09-21T00:06:06.024Z,15.70
2018-09-21T00:08:34.474Z,13.20
2018-09-21T00:11:02.936Z,12.90
2018-09-21T00:13:31.396Z,12.23
2018-09-21T00:15:59.926Z,16.17
2018-09-21T00:18:28.380Z,18.20
2018-09-21T00:20:56.881Z,12.33
2018-09-21T00:23:25.369Z,13.75
2018-09-21T00:25:53.922Z,13.35
2018-09-21T00:28:22.380Z,12.90
2018-09-21T00:30:50.851Z,13.97
2018-09-21T00:33:19.307Z,11.80
2018-09-21T00:35:47.828Z,11.83
2018-09-21T00:38:16.319Z,15.93
2018-09-21T00:40:44.828Z,15.15
2018-09-21T00:43:13.578Z,14.68
2018-09-21T00:45:42.100Z,16.55
2018-09-21T00:48:10.585Z,14.97
2018-09-21T00:50:39.272Z,15.60
2018-09-21T00:53:07.775Z,14.60
2018-09-21T00:55:36.559Z,14.07
2018-09-21T00:58:05.078Z,14.07
2018-09-21T01:00:33.592Z,13.80
2018-09-21T01:03:02.104Z,16.20
2018-09-21T01:05:30.620Z,17.37
2018-09-21T01:07:59.108Z,16.60
2018-09-21T01:10:27.639Z,14.80
2018-09-21T01:12:56.127Z,15.43
2018-09-21T01:15:24.652Z,15.03
2018-09-21T01:17:53.152Z,13.80
2018-09-21T01:20:21.631Z,15.53
2018-09-21T01:22:50.140Z,16.07
2018-09-21T01:25:18.625Z,18.13
2018-09-21T01:27:47.126Z,17.85
2018-09-21T01:30:15.631Z,15.38
2018-09-21T01:32:44.177Z,16.43
2018-09-21T01:35:12.653Z,17.87
2018-09-21T01:37:41.181Z,17.77
2018-09-21T01:40:09.703Z,15.93
2018-09-21T01:42:38.329Z,17.53
2018-09-21T01:45:06.956Z,15.70
2018-09-21T01:47:35.496Z,15.10
2018-09-21T01:50:04.015Z,15.37
2018-09-21T01:52:32.864Z,14.20
2018-09-21T01:55:01.356Z,18.70
2018-09-21T01:57:29.876Z,14.60
2018-09-21T01:59:58.391Z,16.13
2018-09-21T02:02:26.909Z,19.00
2018-09-21T02:04:55.388Z,19.33
2018-09-21T02:07:23.878Z,14.80
2018-09-21T02:09:52.719Z,18.67
2018-09-21T02:12:21.237Z,21.07
2018-09-21T02:14:49.717Z,16.27
2018-09-21T02:20:08.703Z,21.03
2018-09-21T02:22:36.951Z,17.73
2018-09-21T02:25:05.176Z,17.27
2018-09-21T02:27:33.402Z,23.07
2018-09-21T02:30:01.639Z,19.03
2018-09-21T02:32:29.867Z,19.80
2018-09-21T02:34:58.092Z,17.60
2018-09-21T02:37:26.311Z,18.63
2018-09-21T02:39:54.538Z,17.47
2018-09-21T02:42:22.763Z,16.60
2018-09-21T02:44:50.984Z,17.73
2018-09-21T02:47:19.194Z,19.00
2018-09-21T02:49:47.416Z,17.00
2018-09-21T02:52:15.643Z,20.60
2018-09-21T02:54:43.863Z,22.37
2018-09-21T02:57:12.087Z,17.90
2018-09-21T02:59:40.290Z,18.23
2018-09-21T03:02:08.516Z,15.30
2018-09-21T03:04:40.959Z,16.27
2018-09-21T03:07:10.077Z,15.47
2018-09-21T03:09:38.288Z,16.10
2018-09-21T03:12:06.497Z,13.83
2018-09-21T03:14:34.711Z,18.27
2018-09-21T03:17:02.923Z,14.67
2018-09-21T03:19:31.143Z,12.20
2018-09-21T03:21:59.375Z,13.37
2018-09-21T03:24:27.681Z,20.63
2018-09-21T03:26:55.917Z,18.57
2018-09-21T03:29:24.132Z,17.17
2018-09-21T03:31:52.356Z,18.40
2018-09-21T03:34:20.579Z,13.77
2018-09-21T03:36:48.815Z,15.03
2018-09-21T03:39:17.217Z,18.37
2018-09-21T03:41:45.440Z,16.20
2018-09-21T03:44:13.662Z,17.40
2018-09-21T03:46:41.950Z,17.30
2018-09-21T03:49:10.187Z,18.10
2018-09-21T03:51:38.447Z,18.77
2018-09-21T03:54:06.683Z,18.30
2018-09-21T03:56:35.134Z,14.60
2018-09-21T03:59:03.368Z,17.10
2018-09-21T04:01:31.583Z,17.90
2018-09-21T04:04:00.061Z,17.70
2018-09-21T04:06:28.263Z,16.70
2018-09-21T04:08:56.492Z,17.33
2018-09-21T04:11:24.796Z,16.20
2018-09-21T04:13:53.016Z,18.03
2018-09-21T04:16:21.237Z,17.27
2018-09-21T04:18:49.455Z,19.40
2018-09-21T04:21:17.887Z,19.23
2018-09-21T04:23:46.120Z,15.83
2018-09-21T04:26:14.356Z,16.93
2018-09-21T04:28:42.578Z,27.70
2018-09-21T04:31:10.820Z,18.10
2018-09-21T04:33:39.043Z,18.70
2018-09-21T04:36:07.357Z,17.80
2018-09-21T04:38:35.467Z,16.43
2018-09-21T04:41:03.693Z,18.23
2018-09-21T04:43:31.935Z,16.07
2018-09-21T04:46:00.647Z,20.07
2018-09-21T04:48:29.112Z,18.70
2018-09-21T04:50:57.327Z,16.97
2018-09-21T04:53:25.548Z,16.03
2018-09-21T04:55:54.159Z,16.27
2018-09-21T04:58:22.384Z,17.07
2018-09-21T05:00:50.603Z,14.70
2018-09-21T05:03:18.823Z,17.90
2018-09-21T05:05:47.031Z,17.27
2018-09-21T05:08:15.243Z,19.13
2018-09-21T05:10:43.470Z,17.27
2018-09-21T05:13:11.675Z,15.67
2018-09-21T05:15:39.895Z,16.10
2018-09-21T05:18:08.207Z,19.50
2018-09-21T05:20:36.442Z,17.97
2018-09-21T05:23:04.715Z,23.07
2018-09-21T05:25:32.940Z,19.90
2018-09-21T05:28:01.155Z,18.60
2018-09-21T05:30:29.373Z,21.73
2018-09-21T05:32:57.607Z,15.60
2018-09-21T05:35:25.823Z,16.50
2018-09-21T05:37:54.019Z,19.03
2018-09-21T05:40:22.223Z,20.77
2018-09-21T05:42:50.432Z,18.07
2018-09-21T05:45:19.335Z,17.43
2018-09-21T05:47:47.530Z,21.57
2018-09-21T05:50:15.739Z,17.83
2018-09-21T05:52:43.939Z,23.20
2018-09-21T05:55:12.144Z,20.77
2018-09-21T05:57:41.308Z,22.13
2018-09-21T06:00:09.696Z,20.00
2018-09-21T06:02:37.973Z,11.53
2018-09-21T06:05:08.443Z,16.70
2018-09-21T06:07:37.121Z,14.57
2018-09-21T06:10:05.838Z,16.97
2018-09-21T06:12:34.031Z,20.02
2018-09-21T06:15:02.271Z,13.55
2018-09-21T06:17:30.575Z,22.00
2018-09-21T06:20:11.757Z,12.58
2018-09-21T06:22:27.192Z,18.50
2018-09-21T06:24:55.376Z,15.25
2018-09-21T06:27:23.571Z,12.75
2018-09-21T06:29:51.767Z,15.18
2018-09-21T06:32:19.951Z,11.43
2018-09-21T06:34:48.142Z,13.88
2018-09-21T06:37:16.379Z,8.08
2018-09-21T06:39:44.618Z,10.38
2018-09-21T06:42:12.868Z,13.25
2018-09-21T06:44:41.504Z,7.78
2018-09-21T06:47:09.735Z,11.00
2018-09-21T06:49:37.947Z,10.38
2018-09-21T06:52:06.290Z,12.47
2018-09-21T06:54:34.515Z,13.35
2018-09-21T06:57:02.747Z,12.35
2018-09-21T06:59:30.983Z,13.20
2018-09-21T07:01:59.291Z,14.18
2018-09-21T07:04:27.455Z,18.23
2018-09-21T07:06:55.705Z,16.65
2018-09-21T07:09:23.951Z,16.57
2018-09-21T07:11:52.201Z,17.80
2018-09-21T07:14:20.423Z,20.82
2018-09-21T07:16:48.696Z,19.12
2018-09-21T07:19:16.940Z,16.20
2018-09-21T07:21:45.184Z,16.97
2018-09-21T07:24:13.436Z,17.32
2018-09-21T07:26:41.682Z,16.87
2018-09-21T07:29:09.938Z,17.50
2018-09-21T07:31:38.193Z,16.40
2018-09-21T07:34:06.410Z,17.87
2018-09-21T07:36:34.632Z,20.00
2018-09-21T07:39:02.825Z,19.17
2018-09-21T07:41:31.030Z,16.17
2018-09-21T07:43:59.227Z,14.83
2018-09-21T07:46:27.450Z,15.30
2018-09-21T07:48:55.709Z,15.55
2018-09-21T07:51:23.904Z,16.37
2018-09-21T07:53:52.087Z,14.03
2018-09-21T07:56:20.307Z,15.78
2018-09-21T07:58:48.588Z,14.18
2018-09-21T08:01:16.856Z,14.85
2018-09-21T08:03:45.077Z,16.60
2018-09-21T08:06:13.278Z,15.18
2018-09-21T08:08:41.492Z,13.32
2018-09-21T08:11:09.690Z,14.15
2018-09-21T08:13:37.907Z,13.28
2018-09-21T08:16:06.123Z,13.50
2018-09-21T08:18:34.333Z,17.40
2018-09-21T08:21:02.528Z,13.28
2018-09-21T08:23:31.071Z,12.93
2018-09-21T08:25:59.269Z,13.53
2018-09-21T08:28:27.483Z,13.10
2018-09-21T08:30:55.675Z,16.02
2018-09-21T08:33:23.866Z,13.60
2018-09-21T08:35:52.112Z,13.95
2018-09-21T08:38:20.320Z,12.70
2018-09-21T08:40:48.506Z,14.25
2018-09-21T08:43:16.698Z,16.37
2018-09-21T08:45:44.892Z,14.40
2018-09-21T08:48:13.078Z,12.30
2018-09-21T08:50:41.257Z,12.20
2018-09-21T08:53:09.454Z,12.23
2018-09-21T08:55:37.658Z,12.88
2018-09-21T08:58:05.924Z,11.18
2018-09-21T09:00:34.281Z,12.75
2018-09-21T09:03:02.564Z,14.60
2018-09-21T09:05:30.663Z,10.72
2018-09-21T09:07:58.892Z,11.40
2018-09-21T09:10:27.087Z,11.48
2018-09-21T09:12:55.292Z,12.68
2018-09-21T09:15:23.509Z,13.22
2018-09-21T09:17:51.803Z,11.25
2018-09-21T09:20:20.031Z,13.75
2018-09-21T09:22:48.260Z,14.50
2018-09-21T09:25:16.499Z,13.13
2018-09-21T09:27:44.732Z,15.72
2018-09-21T09:30:13.584Z,13.20
2018-09-21T09:32:41.827Z,9.30
2018-09-21T09:35:10.063Z,11.18
2018-09-21T09:37:38.751Z,11.45
2018-09-21T09:40:06.956Z,14.05
2018-09-21T09:42:35.143Z,9.28
2018-09-21T09:45:04.381Z,13.00
2018-09-21T09:47:32.584Z,12.70
2018-09-21T09:50:00.771Z,8.03
2018-09-21T09:52:29.451Z,9.28
2018-09-21T09:54:57.685Z,10.13
2018-09-21T09:57:25.831Z,7.22
2018-09-21T09:59:54.029Z,8.48
2018-09-21T10:02:22.211Z,10.68
2018-09-21T10:04:50.620Z,7.65
2018-09-21T10:07:18.809Z,7.05
2018-09-21T10:09:47.040Z,7.28
2018-09-21T10:12:15.260Z,6.65
2018-09-21T10:14:43.451Z,6.10
2018-09-21T10:17:11.635Z,6.67
2018-09-21T10:19:39.811Z,5.72
2018-09-21T10:22:08.181Z,6.03
2018-09-21T10:24:36.563Z,5.65
2018-09-21T10:27:04.948Z,5.95
2018-09-21T10:29:33.156Z,7.87
2018-09-21T10:32:01.355Z,7.83
2018-09-21T10:34:29.551Z,6.50
2018-09-21T10:36:57.775Z,5.90
2018-09-21T10:39:25.959Z,7.35
2018-09-21T10:41:54.164Z,5.87
2018-09-21T10:44:22.356Z,5.55
2018-09-21T10:46:50.543Z,5.80
2018-09-21T10:49:18.747Z,6.10
2018-09-21T10:51:46.939Z,8.13
2018-09-21T10:54:15.140Z,6.00
2018-09-21T10:56:43.308Z,5.20
2018-09-21T10:59:12.343Z,6.47
2018-09-21T11:01:40.527Z,7.15
2018-09-21T11:04:08.720Z,7.05
2018-09-21T11:06:36.915Z,5.30
2018-09-21T11:09:08.834Z,7.30
2018-09-21T11:11:37.734Z,5.42
2018-09-21T11:14:06.476Z,8.63
2018-09-21T11:16:34.771Z,6.75
2018-09-21T11:19:03.040Z,5.42
2018-09-21T11:21:31.517Z,6.33
2018-09-21T11:23:59.735Z,10.55
2018-09-21T11:26:28.439Z,5.33
2018-09-21T11:28:56.618Z,7.10
2018-09-21T11:31:24.858Z,7.20
2018-09-21T11:33:54.099Z,6.95
2018-09-21T11:36:22.384Z,5.03
2018-09-21T11:38:50.794Z,5.83
2018-09-21T11:41:18.976Z,5.90
2018-09-21T11:43:47.144Z,7.53
2018-09-21T11:46:15.332Z,4.42
2018-09-21T11:48:43.503Z,6.12
2018-09-21T11:51:11.703Z,5.70
2018-09-21T11:53:40.106Z,6.67
2018-09-21T11:56:08.284Z,5.40
2018-09-21T11:58:36.548Z,5.00
2018-09-21T12:01:04.763Z,5.05
2018-09-21T12:03:33.403Z,4.22
2018-09-21T12:06:05.858Z,6.65
2018-09-21T12:08:35.259Z,4.90
2018-09-21T12:11:03.512Z,6.87
2018-09-21T12:13:31.691Z,4.97
2018-09-21T12:15:59.904Z,4.05
2018-09-21T12:18:28.075Z,5.42
2018-09-21T12:20:56.262Z,6.87
2018-09-21T12:23:24.663Z,5.87
2018-09-21T12:25:52.838Z,5.75
2018-09-21T12:28:21.031Z,6.08
2018-09-21T12:30:49.224Z,4.92
2018-09-21T12:33:17.404Z,6.70
2018-09-21T12:35:46.202Z,7.42
2018-09-21T12:38:14.414Z,8.33
2018-09-21T12:40:43.500Z,5.90
2018-09-21T12:43:11.719Z,5.20
2018-09-21T12:45:39.954Z,6.62
2018-09-21T12:48:09.133Z,5.50
2018-09-21T12:50:37.431Z,5.47
2018-09-21T12:53:05.794Z,5.62
2018-09-21T12:55:34.131Z,5.53
2018-09-21T12:58:02.974Z,5.95
2018-09-21T13:00:37.095Z,4.60
2018-09-21T13:03:05.359Z,6.03
2018-09-21T13:05:33.979Z,6.72
2018-09-21T13:08:02.228Z,6.87
2018-09-21T13:10:30.479Z,12.82
2018-09-21T13:12:58.848Z,5.22
2018-09-21T13:15:27.088Z,6.22
2018-09-21T13:17:55.311Z,4.87
2018-09-21T13:20:23.773Z,5.78
2018-09-21T13:22:52.052Z,8.18
2018-09-21T13:25:20.271Z,5.87
2018-09-21T13:27:48.529Z,6.20
2018-09-21T13:30:17.319Z,5.87
2018-09-21T13:32:45.563Z,5.65
2018-09-21T13:35:13.775Z,5.85
2018-09-21T13:37:41.975Z,5.45
2018-09-21T13:40:10.183Z,6.33
2018-09-21T13:42:38.483Z,6.62
2018-09-21T13:45:06.678Z,5.83
2018-09-21T13:47:34.865Z,4.87
2018-09-21T13:50:03.051Z,10.08
2018-09-21T13:52:31.248Z,5.12
2018-09-21T13:54:59.418Z,5.70
2018-09-21T13:57:27.679Z,4.70
2018-09-21T13:59:55.898Z,5.42
2018-09-21T14:02:24.184Z,5.75
2018-09-21T14:04:52.531Z,9.13
2018-09-21T14:07:20.865Z,7.42
2018-09-21T14:09:49.043Z,7.08
2018-09-21T14:12:17.335Z,11.10
2018-09-21T14:14:45.519Z,5.65
2018-09-21T14:17:13.716Z,8.95
2018-09-21T14:19:41.922Z,8.38
2018-09-21T14:22:10.167Z,4.80
2018-09-21T14:24:38.355Z,9.33
2018-09-21T14:27:06.958Z,4.15
2018-09-21T14:29:35.136Z,6.22
2018-09-21T14:32:03.986Z,5.85
2018-09-21T14:34:32.166Z,6.92
2018-09-21T14:37:00.362Z,6.33
2018-09-21T14:39:28.567Z,3.90
2018-09-21T14:41:56.747Z,5.10
2018-09-21T14:44:25.007Z,4.75
2018-09-21T14:46:53.196Z,10.23
2018-09-21T14:49:21.460Z,4.30
2018-09-21T14:51:49.663Z,4.78
2018-09-21T14:54:17.864Z,5.85
2018-09-21T14:56:46.047Z,6.33
2018-09-21T14:59:14.231Z,10.60
2018-09-21T15:01:42.496Z,7.22
2018-09-21T15:04:10.688Z,8.40
2018-09-21T15:06:38.868Z,7.65
2018-09-21T15:09:07.819Z,5.55
2018-09-21T15:11:36.039Z,4.30
2018-09-21T15:14:04.270Z,6.85
2018-09-21T15:16:32.464Z,6.75
2018-09-21T15:19:00.606Z,6.78
2018-09-21T15:21:28.780Z,8.70
2018-09-21T15:23:56.959Z,6.53
2018-09-21T15:26:25.144Z,5.08
2018-09-21T15:28:53.315Z,3.77
2018-09-21T15:31:21.484Z,6.33
2018-09-21T15:33:49.694Z,6.62
2018-09-21T15:36:17.911Z,7.30
2018-09-21T15:38:46.139Z,6.28
2018-09-21T15:41:14.351Z,6.08
2018-09-21T15:43:42.613Z,6.90
2018-09-21T15:46:10.780Z,6.12
2018-09-21T15:48:39.003Z,5.25
2018-09-21T15:51:08.383Z,5.75
2018-09-21T15:53:36.828Z,8.95
2018-09-21T15:56:05.104Z,7.87
2018-09-21T15:58:33.334Z,6.47
2018-09-21T16:01:01.547Z,8.08
2018-09-21T16:03:29.762Z,8.53
2018-09-21T16:05:58.042Z,7.42
2018-09-21T16:08:26.239Z,9.80
2018-09-21T16:10:54.437Z,6.42
2018-09-21T16:13:22.651Z,3.45
2018-09-21T16:15:50.860Z,5.15
2018-09-21T16:18:19.075Z,6.08
2018-09-21T16:20:47.287Z,5.30
2018-09-21T16:23:16.379Z,8.23
2018-09-21T16:25:44.587Z,6.78
2018-09-21T16:28:12.794Z,9.38
2018-09-21T16:30:41.012Z,7.60
2018-09-21T16:33:09.247Z,6.92
2018-09-21T16:35:37.447Z,4.78
2018-09-21T16:38:05.684Z,5.75
2018-09-21T16:40:33.887Z,6.03
2018-09-21T16:43:02.099Z,6.53
2018-09-21T16:45:30.305Z,5.50
2018-09-21T16:47:58.515Z,5.05
2018-09-21T16:50:26.755Z,8.50
2018-09-21T16:52:55.003Z,7.17
2018-09-21T16:55:23.220Z,7.28
2018-09-21T16:57:51.424Z,7.62
2018-09-21T17:00:19.639Z,5.17
2018-09-21T17:02:47.852Z,6.83
2018-09-21T17:05:16.084Z,6.37
2018-09-21T17:07:44.274Z,8.35
2018-09-21T17:13:02.844Z,9.15
2018-09-21T17:15:31.036Z,5.80
2018-09-21T17:17:59.396Z,9.70
2018-09-21T17:20:27.808Z,6.72
2018-09-21T17:22:55.999Z,7.10
2018-09-21T17:25:24.252Z,8.40
2018-09-21T17:27:52.431Z,8.98
2018-09-21T17:30:20.632Z,6.15
2018-09-21T17:32:48.848Z,6.70
2018-09-21T17:35:17.041Z,6.53
2018-09-21T17:37:45.575Z,9.13
2018-09-21T17:40:13.756Z,5.45
2018-09-21T17:42:41.956Z,6.12
2018-09-21T17:45:10.148Z,13.62
2018-09-21T17:47:38.334Z,6.30
2018-09-21T17:50:06.575Z,5.65
2018-09-21T17:52:34.820Z,5.70
2018-09-21T17:55:03.065Z,4.90
2018-09-21T17:57:31.303Z,7.10
2018-09-21T17:59:59.535Z,10.93
2018-09-21T18:02:27.735Z,7.72
2018-09-21T18:04:55.951Z,7.05
2018-09-21T18:07:24.165Z,6.55
2018-09-21T18:09:53.327Z,5.42
2018-09-21T18:12:21.519Z,6.33
2018-09-21T18:14:50.339Z,6.17
2018-09-21T18:17:18.636Z,7.10
2018-09-21T18:19:46.844Z,10.80
2018-09-21T18:22:15.031Z,7.87
2018-09-21T18:24:43.244Z,8.15
2018-09-21T18:27:11.438Z,7.45
2018-09-21T18:29:39.731Z,6.05
2018-09-21T18:32:07.991Z,8.38
2018-09-21T18:34:36.231Z,6.12
2018-09-21T18:37:04.443Z,10.23
2018-09-21T18:39:32.649Z,4.25
2018-09-21T18:42:00.835Z,4.72
2018-09-21T18:44:29.095Z,2.25
2018-09-21T18:46:57.299Z,1.77
2018-09-21T18:49:26.323Z,5.95
2018-09-21T18:51:54.537Z,5.03
2018-09-21T18:54:22.735Z,0.82
2018-09-21T18:56:50.934Z,2.60
2018-09-21T18:59:19.130Z,0.98
2018-09-21T19:01:47.324Z,0.75
2018-09-21T19:04:15.520Z,0.65
2018-09-21T19:06:43.708Z,0.93
2018-09-21T19:09:12.708Z,3.85
2018-09-21T19:11:40.904Z,3.17
2018-09-21T19:14:09.103Z,0.47
2018-09-21T19:16:37.683Z,0.85
2018-09-21T19:19:06.071Z,0.65
2018-09-21T19:21:34.272Z,3.90
2018-09-21T19:24:02.454Z,2.00
2018-09-21T19:26:30.712Z,0.98
2018-09-21T19:28:58.859Z,0.50
2018-09-21T19:31:27.073Z,0.93
2018-09-21T19:33:55.263Z,1.07
2018-09-21T19:36:23.463Z,6.90
2018-09-21T19:38:51.659Z,2.65
2018-09-21T19:41:19.867Z,4.03
2018-09-21T19:43:48.087Z,4.47
2018-09-21T19:46:16.279Z,0.93
2018-09-21T19:48:44.471Z,2.37
2018-09-21T19:51:12.804Z,1.55
2018-09-21T19:53:40.992Z,6.53
2018-09-21T19:56:09.196Z,1.45
2018-09-21T19:58:37.392Z,3.77
2018-09-21T20:01:05.605Z,3.40
2018-09-21T20:03:33.800Z,3.93
2018-09-21T20:06:02.000Z,2.73
2018-09-21T20:08:30.188Z,3.97
2018-09-21T20:10:58.421Z,2.93
2018-09-21T20:13:26.584Z,2.43
2018-09-21T20:15:54.784Z,1.70
2018-09-21T20:18:26.804Z,3.47
2018-09-21T20:20:54.996Z,1.40
2018-09-21T20:23:23.315Z,3.30
2018-09-21T20:25:51.479Z,6.47
2018-09-21T20:28:19.649Z,2.47
2018-09-21T20:37:17.983Z,4.53
2018-09-21T20:39:46.100Z,4.40
2018-09-21T20:42:14.263Z,1.63
2018-09-21T20:44:42.531Z,3.33
2018-09-21T20:47:10.687Z,3.20
2018-09-21T20:49:38.843Z,4.97
2018-09-21T20:52:07.012Z,3.93
2018-09-21T20:54:35.169Z,3.90
2018-09-21T20:57:03.330Z,2.63
2018-09-21T20:59:31.488Z,3.20
2018-09-21T21:01:59.745Z,4.13
2018-09-21T21:04:27.803Z,4.60
2018-09-21T21:06:55.971Z,4.23
2018-09-21T21:09:24.131Z,2.43
2018-09-21T21:11:52.307Z,7.12
2018-09-21T21:14:20.480Z,3.70
2018-09-21T21:16:48.643Z,4.67
2018-09-21T21:19:16.803Z,3.87
2018-09-21T21:21:44.959Z,4.23
2018-09-21T21:24:13.119Z,4.23
2018-09-21T21:26:41.280Z,2.58
2018-09-21T21:29:09.547Z,2.27
2018-09-21T21:31:37.695Z,1.77
2018-09-21T21:34:05.851Z,5.47
2018-09-21T21:36:34.367Z,3.10
2018-09-21T21:39:02.529Z,4.35
2018-09-21T21:41:30.683Z,2.83
2018-09-21T21:43:58.859Z,4.30
2018-09-21T21:46:27.230Z,2.80
2018-09-21T21:48:55.392Z,3.40
2018-09-21T21:51:23.559Z,2.83
2018-09-21T21:53:51.948Z,5.47
2018-09-21T21:56:20.108Z,2.63
2018-09-21T21:58:48.276Z,8.87
2018-09-21T22:01:21.907Z,4.57
2018-09-21T22:03:50.091Z,3.77
2018-09-21T22:06:18.243Z,2.10
2018-09-21T22:08:46.426Z,3.43
2018-09-21T22:11:20.151Z,5.57
2018-09-21T22:13:53.554Z,6.07
2018-09-21T22:16:21.727Z,5.43
2018-09-21T22:18:49.896Z,3.43
2018-09-21T22:21:18.057Z,8.30
2018-09-21T22:23:46.255Z,2.27
2018-09-21T22:26:14.427Z,4.60
2018-09-21T22:28:42.603Z,3.83
2018-09-21T22:31:10.772Z,4.03
2018-09-21T22:33:38.936Z,5.63
2018-09-21T22:36:07.392Z,6.47
2018-09-21T22:38:35.555Z,5.37
2018-09-21T22:41:03.935Z,6.20
2018-09-21T22:43:32.103Z,4.83
2018-09-21T22:46:00.263Z,7.07
2018-09-21T22:48:28.431Z,2.67
2018-09-21T22:50:56.589Z,5.03
2018-09-21T22:53:24.763Z,4.20
2018-09-21T22:55:52.920Z,6.40
2018-09-21T22:58:21.110Z,5.13
2018-09-21T23:00:50.171Z,3.47
2018-09-21T23:03:18.336Z,6.00
2018-09-21T23:05:46.494Z,9.30
2018-09-21T23:08:14.664Z,3.97
2018-09-21T23:10:42.816Z,8.33
2018-09-21T23:13:10.999Z,4.20
2018-09-21T23:15:39.360Z,7.13
2018-09-21T23:18:07.585Z,8.27
2018-09-21T23:20:35.768Z,5.03
2018-09-21T23:23:03.928Z,8.23
2018-09-21T23:25:32.092Z,6.03
2018-09-21T23:28:00.262Z,5.90
2018-09-21T23:30:28.459Z,4.37
2018-09-21T23:32:56.661Z,6.87
2018-09-21T23:35:24.856Z,8.97
2018-09-21T23:37:53.063Z,9.03
2018-09-21T23:40:21.226Z,5.40
2018-09-21T23:42:49.383Z,7.07
2018-09-21T23:45:17.538Z,4.57
2018-09-21T23:47:45.690Z,3.67
2018-09-21T23:50:13.861Z,6.23
2018-09-21T23:52:42.011Z,5.43
2018-09-21T23:55:10.169Z,4.13
2018-09-21T23:57:38.323Z,7.80
